ESPA/LLA METAR and TAF weather

Enter ICAO airport designator
Station Type Date Time Source
ESPA METAR 2019/04/25 01:50 UTC NOAA

ESPA 250150Z AUTO 00000KT 4600 BR NCD M01/M02 Q1025


Station Type Date Time Source
ESPA Decoded METAR 2019/04/25 01:50 UTC NOAA

Lulea / Kallax, Sweden (ESPA) 65-33N 022-08E 34M
Apr 24, 2019 - 09:50 PM EDT / 2019.04.25 0150 UTC
Wind: Calm:0
Visibility: 2 mile(s):0
Weather: mist
Temperature: 30 F (-1 C)
Dew Point: 28 F (-2 C)
Relative Humidity: 92%
Pressure (altimeter): 30.27 in. Hg (1025 hPa)
ob: ESPA 250150Z AUTO 00000KT 4600 BR NCD M01/M02 Q1025
cycle: 2

Station Type Date Time Source
ESPA TAF 2019/02/04 06:27 UTC NOAA

TAF TAF ESPA 040820Z 0406/0418 01010KT 2000 SN VV020
TEMPO 0409/0414 1000 +SN DRSN VV009
BECMG 0414/0416 32010KT 5000 -SN VV030
RMK MIL

Example: see airport list